Terminal Aerodrome Forecast
Issued by NWS Bismarck, ND

Home | Current Version | Previous Version | Graphics & Text | Print | Product List | Glossary On
Versions: 1 2 3 4 5 6 7 8 9 10 11 12
000
FTUS43 KBIS 191123
TAFISN
TAF
KISN 191123Z 1912/2012 20005KT P6SM SCT150
     FM191600 27009KT P6SM FEW120 SCT250
     FM191800 31015G24KT P6SM FEW120 FEW250
     FM192000 34016G25KT P6SM FEW100 FEW250
     FM200200 35007KT P6SM FEW120 FEW250=

USA.gov is the U.S. government's official web portal to all federal, state and local government web resources and services.